Wetterdaten: Woche 30.06.08 - 06.07.08 (KW27)
Datum Zeit Temperatur Luftfeuchte Luftdruck Niederschlag Wind Richtung Sonnenschein Solar Taupunkt Windchill Windben
30.06.2008 00:00 22.0 C 71 % 1017.0 hPa 0.0 l/m 5.1 km/h (1 Bft) S-SO 0.00 h 0 W/m 16.5 C 22.0 C 10.3 km/h (2 Bft)
30.06.2008 01:00 20.7 C 77 % 1017.1 hPa 0.0 l/m 4.0 km/h (1 Bft) S-SO 0.00 h 0 W/m 16.6 C 20.7 C 7.4 km/h (2 Bft)
30.06.2008 02:00 19.8 C 82 % 1016.9 hPa 0.0 l/m 1.3 km/h (1 Bft) S-SO 0.00 h 0 W/m 16.6 C 19.8 C 3.7 km/h (1 Bft)
30.06.2008 03:00 19.4 C 83 % 1016.8 hPa 0.0 l/m 0.1 km/h (0 Bft) S 0.00 h 0 W/m 16.5 C 19.4 C 0.9 km/h (0 Bft)
30.06.2008 04:00 18.9 C 85 % 1016.8 hPa 0.0 l/m 1.6 km/h (1 Bft) O-SO 0.00 h 0 W/m 16.3 C 18.9 C 2.9 km/h (1 Bft)
30.06.2008 05:00 17.9 C 88 % 1017.6 hPa 0.0 l/m 2.7 km/h (1 Bft) O-SO 0.00 h 9 W/m 15.9 C 17.9 C 4.3 km/h (1 Bft)
30.06.2008 06:00 18.7 C 87 % 1018.2 hPa 0.0 l/m 1.5 km/h (1 Bft) O-SO 0.30 h 58 W/m 16.4 C 18.7 C 2.9 km/h (1 Bft)
30.06.2008 07:00 19.7 C 85 % 1018.5 hPa 0.0 l/m 0.1 km/h (0 Bft) O-SO 0.10 h 118 W/m 17.0 C 19.7 C 0.8 km/h (0 Bft)
30.06.2008 08:00 21.1 C 79 % 1018.8 hPa 0.0 l/m 1.1 km/h (1 Bft) W 0.43 h 265 W/m 17.2 C 21.1 C 2.4 km/h (1 Bft)
30.06.2008 09:00 23.0 C 67 % 1018.7 hPa 0.0 l/m 2.3 km/h (1 Bft) N-NO 0.73 h 481 W/m 16.4 C 23.0 C 5.1 km/h (1 Bft)
30.06.2008 10:00 24.5 C 60 % 1018.6 hPa 0.0 l/m 4.2 km/h (1 Bft) O-SO 0.80 h 559 W/m 16.3 C 24.5 C 7.7 km/h (2 Bft)
30.06.2008 11:00 25.1 C 61 % 1018.8 hPa 0.0 l/m 4.0 km/h (1 Bft) O-SO 0.62 h 653 W/m 16.9 C 25.1 C 6.9 km/h (2 Bft)
30.06.2008 12:00 27.0 C 55 % 1018.6 hPa 0.0 l/m 2.5 km/h (1 Bft) NW 0.83 h 823 W/m 17.3 C 27.0 C 5.3 km/h (1 Bft)
30.06.2008 13:00 27.9 C 52 % 1018.3 hPa 0.0 l/m 3.1 km/h (1 Bft) O-SO 0.53 h 657 W/m 17.0 C 27.9 C 5.9 km/h (2 Bft)
30.06.2008 14:00 28.0 C 52 % 1018.0 hPa 0.0 l/m 3.2 km/h (1 Bft) NO 0.52 h 604 W/m 17.2 C 28.0 C 6.2 km/h (2 Bft)
30.06.2008 15:00 27.7 C 52 % 1017.8 hPa 0.0 l/m 3.3 km/h (1 Bft) O 0.70 h 598 W/m 17.1 C 27.7 C 6.6 km/h (2 Bft)
30.06.2008 16:00 28.6 C 47 % 1017.4 hPa 0.0 l/m 3.8 km/h (1 Bft) O-SO 0.73 h 521 W/m 16.3 C 28.6 C 6.8 km/h (2 Bft)
30.06.2008 17:00 29.0 C 47 % 1017.0 hPa 0.0 l/m 3.5 km/h (1 Bft) O-SO 0.80 h 501 W/m 16.4 C 29.0 C 6.6 km/h (2 Bft)
30.06.2008 18:00 27.0 C 53 % 1017.1 hPa 0.0 l/m 4.2 km/h (1 Bft) O-SO 0.12 h 147 W/m 16.5 C 27.0 C 7.0 km/h (2 Bft)
30.06.2008 19:00 26.0 C 57 % 1017.0 hPa 0.0 l/m 0.9 km/h (0 Bft) O-SO 0.00 h 45 W/m 16.7 C 26.0 C 2.3 km/h (1 Bft)
30.06.2008 20:00 24.7 C 61 % 1017.1 hPa 0.0 l/m 1.4 km/h (1 Bft) SO 0.00 h 32 W/m 16.7 C 24.7 C 2.9 km/h (1 Bft)
30.06.2008 21:00 23.6 C 65 % 1017.1 hPa 0.0 l/m 0.3 km/h (0 Bft) SO 0.00 h 9 W/m 16.7 C 23.6 C 0.9 km/h (0 Bft)
30.06.2008 22:00 22.3 C 71 % 1017.6 hPa 0.0 l/m 0.2 km/h (0 Bft) SO 0.00 h 0 W/m 16.9 C 22.3 C 0.7 km/h (0 Bft)
30.06.2008 23:00 21.1 C 76 % 1017.7 hPa 0.0 l/m 0.3 km/h (0 Bft) SO 0.00 h 0 W/m 16.8 C 21.1 C 1.0 km/h (0 Bft)
01.07.2008 00:00 20.4 C 76 % 1017.6 hPa 0.0 l/m 0.3 km/h (0 Bft) W 0.00 h 0 W/m 16.0 C 20.4 C 1.2 km/h (1 Bft)
01.07.2008 01:00 19.8 C 76 % 1017.5 hPa 0.0 l/m 0.2 km/h (0 Bft) O 0.00 h 0 W/m 15.5 C 19.8 C 0.7 km/h (0 Bft)
01.07.2008 02:00 19.2 C 78 % 1017.1 hPa 0.0 l/m 0.1 km/h (0 Bft) O 0.00 h 0 W/m 15.2 C 19.2 C 0.9 km/h (0 Bft)
01.07.2008 03:00 18.3 C 83 % 1016.7 hPa 0.0 l/m 0.5 km/h (0 Bft) O-NO 0.00 h 0 W/m 15.3 C 18.3 C 1.8 km/h (1 Bft)
01.07.2008 04:00 16.9 C 88 % 1016.4 hPa 0.0 l/m 0.3 km/h (0 Bft) O 0.00 h 0 W/m 14.8 C 16.9 C 1.4 km/h (1 Bft)
01.07.2008 05:00 16.3 C 89 % 1016.3 hPa 0.0 l/m 0.1 km/h (0 Bft) O 0.05 h 10 W/m 14.5 C 16.3 C 0.7 km/h (0 Bft)
01.07.2008 06:00 16.4 C 89 % 1016.4 hPa 0.0 l/m 0.3 km/h (0 Bft) O 0.00 h 39 W/m 14.5 C 16.4 C 1.0 km/h (0 Bft)
01.07.2008 07:00 18.3 C 83 % 1016.3 hPa 0.0 l/m 0.2 km/h (0 Bft) O 0.95 h 172 W/m 15.4 C 18.3 C 0.7 km/h (0 Bft)
01.07.2008 08:00 20.4 C 76 % 1015.9 hPa 0.0 l/m 1.5 km/h (1 Bft) N 1.00 h 323 W/m 16.0 C 20.4 C 3.2 km/h (1 Bft)
01.07.2008 09:00 22.7 C 66 % 1015.5 hPa 0.0 l/m 2.2 km/h (1 Bft) O-SO 1.00 h 481 W/m 16.0 C 22.7 C 4.6 km/h (1 Bft)
01.07.2008 10:00 24.9 C 60 % 1015.1 hPa 0.0 l/m 3.1 km/h (1 Bft) O-SO 1.00 h 623 W/m 16.6 C 24.9 C 5.7 km/h (1 Bft)
01.07.2008 11:00 26.6 C 56 % 1014.7 hPa 0.0 l/m 1.8 km/h (1 Bft) O-SO 1.00 h 737 W/m 17.2 C 26.6 C 4.1 km/h (1 Bft)
01.07.2008 12:00 28.2 C 51 % 1014.2 hPa 0.0 l/m 4.0 km/h (1 Bft) SO 1.00 h 807 W/m 17.0 C 28.2 C 7.3 km/h (2 Bft)
01.07.2008 13:00 29.4 C 42 % 1013.7 hPa 0.0 l/m 6.4 km/h (2 Bft) O-SO 1.00 h 844 W/m 15.0 C 29.4 C 10.9 km/h (2 Bft)
01.07.2008 14:00 30.1 C 39 % 1013.2 hPa 0.0 l/m 5.4 km/h (1 Bft) O-SO 1.00 h 819 W/m 14.6 C 30.1 C 8.7 km/h (2 Bft)
01.07.2008 15:00 31.2 C 37 % 1012.5 hPa 0.0 l/m 3.6 km/h (1 Bft) W-NW 1.00 h 755 W/m 14.6 C 31.2 C 6.4 km/h (2 Bft)
01.07.2008 16:00 32.1 C 36 % 1011.9 hPa 0.0 l/m 2.7 km/h (1 Bft) W 1.00 h 646 W/m 14.9 C 32.1 C 5.2 km/h (1 Bft)
01.07.2008 17:00 32.1 C 35 % 1011.2 hPa 0.0 l/m 2.6 km/h (1 Bft) N-NW 0.93 h 462 W/m 14.8 C 32.1 C 5.0 km/h (1 Bft)
01.07.2008 18:00 31.0 C 38 % 1011.4 hPa 0.0 l/m 5.3 km/h (1 Bft) W 0.47 h 249 W/m 14.9 C 31.0 C 8.7 km/h (2 Bft)
01.07.2008 19:00 28.5 C 44 % 1011.5 hPa 0.0 l/m 4.8 km/h (1 Bft) W 0.00 h 112 W/m 14.9 C 28.5 C 8.1 km/h (2 Bft)
01.07.2008 20:00 25.7 C 50 % 1012.7 hPa 0.0 l/m 8.1 km/h (2 Bft) S-SO 0.00 h 28 W/m 14.5 C 25.7 C 15.4 km/h (3 Bft)
01.07.2008 21:00 22.1 C 59 % 1013.6 hPa 0.0 l/m 8.3 km/h (2 Bft) S-SO 0.13 h 21 W/m 13.8 C 22.1 C 16.2 km/h (3 Bft)
01.07.2008 22:00 21.2 C 65 % 1014.2 hPa 0.0 l/m 3.0 km/h (1 Bft) S-SO 0.00 h 0 W/m 14.2 C 21.2 C 6.0 km/h (2 Bft)
01.07.2008 23:00 20.7 C 68 % 1013.7 hPa 0.0 l/m 2.2 km/h (1 Bft) S-SO 0.00 h 0 W/m 14.5 C 20.7 C 4.1 km/h (1 Bft)
02.07.2008 00:00 19.9 C 70 % 1013.2 hPa 0.0 l/m 1.3 km/h (1 Bft) SO 0.00 h 0 W/m 14.3 C 19.9 C 2.4 km/h (1 Bft)
02.07.2008 01:00 19.2 C 73 % 1013.0 hPa 0.0 l/m 4.0 km/h (1 Bft) O-SO 0.00 h 0 W/m 14.2 C 19.2 C 5.6 km/h (1 Bft)
02.07.2008 02:00 17.8 C 78 % 1012.8 hPa 0.0 l/m 3.4 km/h (1 Bft) SO 0.00 h 0 W/m 14.0 C 17.8 C 5.3 km/h (1 Bft)
02.07.2008 03:00 17.7 C 79 % 1013.0 hPa 0.0 l/m 3.0 km/h (1 Bft) O-SO 0.00 h 0 W/m 14.1 C 17.7 C 4.4 km/h (1 Bft)
02.07.2008 04:00 17.7 C 80 % 1012.8 hPa 0.0 l/m 1.3 km/h (1 Bft) O-SO 0.00 h 0 W/m 14.2 C 17.7 C 2.8 km/h (1 Bft)
02.07.2008 05:00 17.7 C 80 % 1012.8 hPa 0.0 l/m 1.0 km/h (0 Bft) O-SO 0.00 h 7 W/m 14.2 C 17.7 C 2.2 km/h (1 Bft)
02.07.2008 06:00 17.7 C 81 % 1012.8 hPa 0.0 l/m 0.3 km/h (0 Bft) O-SO 0.00 h 21 W/m 14.3 C 17.7 C 1.3 km/h (1 Bft)
02.07.2008 07:00 17.8 C 83 % 1013.0 hPa 0.0 l/m 0.1 km/h (0 Bft) O-SO 0.03 h 63 W/m 14.9 C 17.8 C 0.7 km/h (0 Bft)
02.07.2008 08:00 20.1 C 75 % 1013.0 hPa 0.0 l/m 0.5 km/h (0 Bft) O-SO 0.88 h 317 W/m 15.5 C 20.1 C 1.5 km/h (1 Bft)
02.07.2008 09:00 22.8 C 65 % 1012.9 hPa 0.0 l/m 0.8 km/h (0 Bft) O 1.00 h 480 W/m 15.9 C 22.8 C 2.4 km/h (1 Bft)
02.07.2008 10:00 25.0 C 57 % 1012.3 hPa 0.0 l/m 2.0 km/h (1 Bft) O-SO 1.00 h 628 W/m 15.9 C 25.0 C 4.8 km/h (1 Bft)
02.07.2008 11:00 27.4 C 50 % 1011.6 hPa 0.0 l/m 2.5 km/h (1 Bft) SO 1.00 h 734 W/m 16.0 C 27.4 C 5.5 km/h (1 Bft)
02.07.2008 12:00 28.9 C 44 % 1010.9 hPa 0.0 l/m 3.1 km/h (1 Bft) SO 1.00 h 807 W/m 15.5 C 28.9 C 6.2 km/h (2 Bft)
02.07.2008 13:00 30.4 C 37 % 1010.0 hPa 0.0 l/m 4.9 km/h (1 Bft) SO 1.00 h 842 W/m 13.9 C 30.4 C 9.2 km/h (2 Bft)
02.07.2008 14:00 31.7 C 32 % 1009.3 hPa 0.0 l/m 3.5 km/h (1 Bft) O-SO 1.00 h 827 W/m 12.9 C 31.7 C 6.6 km/h (2 Bft)
02.07.2008 15:00 32.6 C 29 % 1009.0 hPa 0.0 l/m 4.2 km/h (1 Bft) S-SO 1.00 h 764 W/m 12.3 C 32.6 C 8.0 km/h (2 Bft)
02.07.2008 16:00 33.1 C 28 % 1008.4 hPa 0.0 l/m 3.5 km/h (1 Bft) S-SO 1.00 h 672 W/m 12.1 C 33.1 C 7.1 km/h (2 Bft)
02.07.2008 17:00 32.6 C 29 % 1007.7 hPa 0.0 l/m 3.1 km/h (1 Bft) W 0.78 h 396 W/m 12.3 C 32.6 C 5.7 km/h (1 Bft)
02.07.2008 18:00 31.5 C 30 % 1007.1 hPa 0.0 l/m 1.8 km/h (1 Bft) SO 0.95 h 321 W/m 12.0 C 31.5 C 4.1 km/h (1 Bft)
02.07.2008 19:00 31.0 C 33 % 1006.6 hPa 0.0 l/m 2.8 km/h (1 Bft) SO 0.78 h 199 W/m 12.6 C 31.0 C 4.9 km/h (1 Bft)
02.07.2008 20:00 27.9 C 45 % 1007.2 hPa 0.0 l/m 2.9 km/h (1 Bft) SO 0.00 h 39 W/m 14.9 C 27.9 C 4.1 km/h (1 Bft)
02.07.2008 21:00 25.2 C 54 % 1007.6 hPa 0.0 l/m 5.8 km/h (2 Bft) O-SO 0.00 h 8 W/m 15.3 C 25.2 C 7.6 km/h (2 Bft)
02.07.2008 22:00 23.5 C 61 % 1007.9 hPa 0.0 l/m 1.9 km/h (1 Bft) O 0.00 h 0 W/m 15.5 C 23.5 C 3.4 km/h (1 Bft)
02.07.2008 23:00 22.4 C 66 % 1008.4 hPa 0.0 l/m 2.0 km/h (1 Bft) O-SO 0.00 h 0 W/m 15.8 C 22.4 C 3.7 km/h (1 Bft)
03.07.2008 00:00 23.3 C 59 % 1008.8 hPa 0.0 l/m 4.5 km/h (1 Bft) W 0.00 h 0 W/m 14.9 C 23.3 C 9.2 km/h (2 Bft)
03.07.2008 01:00 22.6 C 60 % 1009.5 hPa 0.0 l/m 3.1 km/h (1 Bft) W 0.00 h 0 W/m 14.4 C 22.6 C 6.0 km/h (2 Bft)
03.07.2008 02:00 20.4 C 77 % 1009.2 hPa 0.2 l/m 4.3 km/h (1 Bft) W 0.00 h 0 W/m 16.1 C 20.4 C 7.8 km/h (2 Bft)
03.07.2008 03:00 19.1 C 86 % 1008.6 hPa 0.0 l/m 2.0 km/h (1 Bft) O-SO 0.00 h 0 W/m 16.6 C 19.1 C 4.3 km/h (1 Bft)
03.07.2008 04:00 18.6 C 85 % 1009.0 hPa 0.0 l/m 1.7 km/h (1 Bft) W 0.00 h 0 W/m 16.1 C 18.6 C 3.7 km/h (1 Bft)
03.07.2008 05:00 18.2 C 87 % 1008.8 hPa 0.0 l/m 1.1 km/h (0 Bft) O-SO 0.22 h 15 W/m 16.0 C 18.2 C 2.3 km/h (1 Bft)
03.07.2008 06:00 17.8 C 91 % 1009.0 hPa 0.0 l/m 0.6 km/h (0 Bft) W 0.00 h 41 W/m 16.3 C 17.8 C 1.7 km/h (1 Bft)
03.07.2008 07:00 19.1 C 88 % 1009.3 hPa 0.0 l/m 1.6 km/h (1 Bft) NW 0.63 h 166 W/m 17.1 C 19.1 C 3.4 km/h (1 Bft)
03.07.2008 08:00 20.8 C 79 % 1009.2 hPa 0.0 l/m 1.4 km/h (1 Bft) W-NW 0.72 h 314 W/m 17.1 C 20.8 C 3.1 km/h (1 Bft)
03.07.2008 09:00 21.7 C 77 % 1009.3 hPa 0.0 l/m 3.0 km/h (1 Bft) W 0.22 h 288 W/m 17.4 C 21.7 C 5.2 km/h (1 Bft)
03.07.2008 10:00 23.2 C 70 % 1009.9 hPa 0.0 l/m 8.3 km/h (2 Bft) W 0.37 h 316 W/m 17.4 C 23.2 C 13.3 km/h (3 Bft)
03.07.2008 11:00 21.6 C 71 % 1010.6 hPa 0.0 l/m 12.7 km/h (3 Bft) W 0.00 h 172 W/m 16.1 C 21.6 C 20.0 km/h (4 Bft)
03.07.2008 12:00 20.4 C 76 % 1010.8 hPa 0.0 l/m 4.9 km/h (1 Bft) W 0.00 h 166 W/m 16.2 C 20.4 C 8.1 km/h (2 Bft)
03.07.2008 13:00 20.7 C 77 % 1010.4 hPa 0.2 l/m 2.6 km/h (1 Bft) N-NW 0.00 h 219 W/m 16.6 C 20.7 C 4.8 km/h (1 Bft)
03.07.2008 14:00 21.2 C 74 % 1010.4 hPa 0.0 l/m 2.8 km/h (1 Bft) O-SO 0.15 h 286 W/m 16.3 C 21.2 C 4.7 km/h (1 Bft)
03.07.2008 15:00 22.2 C 72 % 1010.4 hPa 0.8 l/m 3.9 km/h (1 Bft) SO 0.07 h 176 W/m 16.9 C 22.2 C 6.4 km/h (2 Bft)
03.07.2008 16:00 19.4 C 90 % 1010.8 hPa 0.4 l/m 1.3 km/h (1 Bft) N-NW 0.00 h 113 W/m 17.8 C 19.4 C 3.1 km/h (1 Bft)
03.07.2008 17:00 19.1 C 92 % 1010.9 hPa 0.6 l/m 9.2 km/h (2 Bft) W 0.02 h 116 W/m 17.8 C 19.1 C 14.8 km/h (3 Bft)
03.07.2008 18:00 18.0 C 90 % 1012.1 hPa 0.0 l/m 9.9 km/h (2 Bft) W 0.00 h 73 W/m 16.4 C 18.0 C 16.5 km/h (3 Bft)
03.07.2008 19:00 17.6 C 84 % 1013.2 hPa 0.0 l/m 13.3 km/h (3 Bft) W 0.00 h 28 W/m 14.8 C 17.6 C 21.1 km/h (4 Bft)
03.07.2008 20:00 17.1 C 83 % 1013.7 hPa 0.0 l/m 11.2 km/h (2 Bft) W-NW 0.00 h 17 W/m 14.2 C 17.1 C 17.9 km/h (3 Bft)
03.07.2008 21:00 16.1 C 85 % 1014.7 hPa 0.0 l/m 13.0 km/h (3 Bft) W 0.00 h 5 W/m 13.6 C 16.1 C 21.3 km/h (4 Bft)
03.07.2008 22:00 15.7 C 87 % 1015.8 hPa 0.0 l/m 9.7 km/h (2 Bft) W 0.00 h 0 W/m 13.4 C 15.7 C 15.7 km/h (3 Bft)
03.07.2008 23:00 15.5 C 88 % 1016.5 hPa 0.4 l/m 1.7 km/h (1 Bft) W 0.00 h 0 W/m 13.4 C 15.5 C 3.8 km/h (1 Bft)
04.07.2008 00:00 14.9 C 94 % 1017.0 hPa 0.0 l/m 0.8 km/h (0 Bft) W 0.00 h 0 W/m 13.9 C 14.9 C 3.0 km/h (1 Bft)
04.07.2008 01:00 14.6 C 94 % 1017.4 hPa 0.0 l/m 0.9 km/h (0 Bft) W-SW 0.00 h 0 W/m 13.7 C 14.6 C 2.7 km/h (1 Bft)
04.07.2008 02:00 14.0 C 95 % 1017.4 hPa 0.0 l/m 1.0 km/h (0 Bft) W-SW 0.00 h 0 W/m 13.2 C 14.0 C 3.1 km/h (1 Bft)
04.07.2008 03:00 13.6 C 95 % 1017.5 hPa 0.0 l/m 1.0 km/h (0 Bft) SO 0.00 h 0 W/m 12.8 C 13.6 C 1.4 km/h (1 Bft)
04.07.2008 04:00 13.1 C 96 % 1017.5 hPa 0.0 l/m 1.6 km/h (1 Bft) S-SO 0.00 h 0 W/m 12.5 C 13.1 C 2.8 km/h (1 Bft)
04.07.2008 05:00 12.6 C 97 % 1017.6 hPa 0.0 l/m 0.3 km/h (0 Bft) S 0.00 h 9 W/m 12.1 C 12.6 C 1.5 km/h (1 Bft)
04.07.2008 06:00 13.1 C 97 % 1017.7 hPa 0.0 l/m 1.2 km/h (1 Bft) SO 0.10 h 55 W/m 12.6 C 13.1 C 2.6 km/h (1 Bft)
04.07.2008 07:00 14.9 C 90 % 1017.6 hPa 0.0 l/m 0.6 km/h (0 Bft) S 0.45 h 168 W/m 13.3 C 14.9 C 2.0 km/h (1 Bft)
04.07.2008 08:00 16.7 C 80 % 1017.5 hPa 0.0 l/m 1.7 km/h (1 Bft) W 0.98 h 363 W/m 13.2 C 16.7 C 3.7 km/h (1 Bft)
04.07.2008 09:00 18.1 C 73 % 1017.3 hPa 0.0 l/m 3.4 km/h (1 Bft) W 0.92 h 519 W/m 13.3 C 18.1 C 6.5 km/h (2 Bft)
04.07.2008 10:00 19.5 C 66 % 1017.0 hPa 0.2 l/m 3.1 km/h (1 Bft) W 1.00 h 674 W/m 13.0 C 19.5 C 5.7 km/h (1 Bft)
04.07.2008 11:00 20.9 C 59 % 1016.8 hPa 0.0 l/m 3.7 km/h (1 Bft) W 0.80 h 723 W/m 12.5 C 20.9 C 6.6 km/h (2 Bft)
04.07.2008 12:00 22.7 C 50 % 1016.3 hPa 0.0 l/m 5.7 km/h (1 Bft) W 1.00 h 950 W/m 11.7 C 22.7 C 9.4 km/h (2 Bft)
04.07.2008 13:00 23.9 C 43 % 1015.7 hPa 0.0 l/m 5.4 km/h (1 Bft) W 0.98 h 928 W/m 10.6 C 23.9 C 9.6 km/h (2 Bft)
04.07.2008 14:00 24.3 C 36 % 1015.6 hPa 0.0 l/m 8.0 km/h (2 Bft) W 1.00 h 873 W/m 8.1 C 24.3 C 13.1 km/h (3 Bft)
04.07.2008 15:00 25.1 C 33 % 1015.2 hPa 0.0 l/m 6.1 km/h (2 Bft) W-NW 1.00 h 804 W/m 7.9 C 25.1 C 9.8 km/h (2 Bft)
04.07.2008 16:00 25.3 C 32 % 1015.1 hPa 0.0 l/m 7.4 km/h (2 Bft) W 1.00 h 691 W/m 7.5 C 25.3 C 11.9 km/h (2 Bft)
04.07.2008 17:00 25.3 C 31 % 1014.8 hPa 0.0 l/m 6.9 km/h (2 Bft) W 1.00 h 550 W/m 7.2 C 25.3 C 10.5 km/h (2 Bft)
04.07.2008 18:00 25.3 C 30 % 1014.4 hPa 0.0 l/m 5.3 km/h (1 Bft) W 0.97 h 386 W/m 6.4 C 25.3 C 8.5 km/h (2 Bft)
04.07.2008 19:00 24.0 C 32 % 1014.3 hPa 0.0 l/m 6.2 km/h (2 Bft) W 0.72 h 198 W/m 6.3 C 24.0 C 9.2 km/h (2 Bft)
04.07.2008 20:00 21.2 C 42 % 1014.5 hPa 0.0 l/m 0.9 km/h (0 Bft) W 0.00 h 38 W/m 7.6 C 21.2 C 2.8 km/h (1 Bft)
04.07.2008 21:00 19.4 C 47 % 1014.9 hPa 0.0 l/m 0.6 km/h (0 Bft) SW 0.00 h 10 W/m 7.9 C 19.4 C 1.9 km/h (1 Bft)
04.07.2008 22:00 17.3 C 57 % 1015.2 hPa 0.0 l/m 1.4 km/h (1 Bft) O-SO 0.00 h 0 W/m 8.7 C 17.3 C 2.9 km/h (1 Bft)
04.07.2008 23:00 15.2 C 68 % 1015.6 hPa 0.0 l/m 3.2 km/h (1 Bft) O-SO 0.00 h 0 W/m 9.4 C 15.2 C 4.5 km/h (1 Bft)
05.07.2008 00:00 14.3 C 72 % 1015.6 hPa 0.0 l/m 1.2 km/h (1 Bft) O 0.00 h 0 W/m 9.3 C 14.3 C 2.3 km/h (1 Bft)
05.07.2008 01:00 13.5 C 77 % 1015.5 hPa 0.0 l/m 0.8 km/h (0 Bft) O-NO 0.00 h 0 W/m 9.5 C 13.5 C 1.6 km/h (1 Bft)
05.07.2008 02:00 12.8 C 81 % 1015.7 hPa 0.0 l/m 1.5 km/h (1 Bft) O-NO 0.00 h 0 W/m 9.6 C 12.8 C 2.8 km/h (1 Bft)
05.07.2008 03:00 12.2 C 83 % 1015.6 hPa 0.0 l/m 1.1 km/h (1 Bft) O-NO 0.00 h 0 W/m 9.4 C 12.2 C 2.6 km/h (1 Bft)
05.07.2008 04:00 11.7 C 86 % 1015.1 hPa 0.0 l/m 0.6 km/h (0 Bft) O-NO 0.00 h 0 W/m 9.4 C 11.7 C 1.3 km/h (1 Bft)
05.07.2008 05:00 11.1 C 88 % 1015.1 hPa 0.0 l/m 0.7 km/h (0 Bft) O-NO 0.02 h 8 W/m 9.2 C 11.1 C 1.8 km/h (1 Bft)
05.07.2008 06:00 11.3 C 88 % 1015.3 hPa 0.0 l/m 0.1 km/h (0 Bft) O-NO 0.08 h 36 W/m 9.4 C 11.3 C 0.9 km/h (0 Bft)
05.07.2008 07:00 13.3 C 83 % 1015.4 hPa 0.0 l/m 0.0 km/h (0 Bft) N 0.20 h 131 W/m 10.4 C 13.3 C 0.5 km/h (0 Bft)
05.07.2008 08:00 15.0 C 77 % 1015.5 hPa 0.0 l/m 0.5 km/h (0 Bft) NW 0.02 h 197 W/m 11.0 C 15.0 C 1.5 km/h (1 Bft)
05.07.2008 09:00 17.4 C 69 % 1015.6 hPa 0.0 l/m 1.3 km/h (1 Bft) N-NW 0.57 h 376 W/m 11.7 C 17.4 C 2.9 km/h (1 Bft)
05.07.2008 10:00 20.3 C 57 % 1015.4 hPa 0.0 l/m 2.1 km/h (1 Bft) W-NW 0.92 h 636 W/m 11.5 C 20.3 C 4.1 km/h (1 Bft)
05.07.2008 11:00 23.3 C 49 % 1014.9 hPa 0.0 l/m 2.1 km/h (1 Bft) W-NW 1.00 h 833 W/m 12.0 C 23.3 C 4.2 km/h (1 Bft)
05.07.2008 12:00 24.6 C 45 % 1014.4 hPa 0.0 l/m 1.8 km/h (1 Bft) W 0.68 h 676 W/m 12.0 C 24.6 C 4.0 km/h (1 Bft)
05.07.2008 13:00 27.0 C 28 % 1013.7 hPa 0.0 l/m 6.4 km/h (2 Bft) W-NW 1.00 h 878 W/m 6.6 C 27.0 C 10.6 km/h (2 Bft)
05.07.2008 14:00 27.9 C 28 % 1013.2 hPa 0.0 l/m 7.8 km/h (2 Bft) W 1.00 h 856 W/m 7.8 C 27.9 C 12.8 km/h (3 Bft)
05.07.2008 15:00 29.0 C 31 % 1012.7 hPa 0.0 l/m 6.7 km/h (2 Bft) W 1.00 h 782 W/m 9.9 C 29.0 C 11.1 km/h (2 Bft)
05.07.2008 16:00 29.0 C 32 % 1012.6 hPa 0.0 l/m 8.8 km/h (2 Bft) W 0.97 h 649 W/m 10.5 C 29.0 C 14.5 km/h (3 Bft)
05.07.2008 17:00 29.0 C 32 % 1012.2 hPa 0.0 l/m 8.5 km/h (2 Bft) W 1.00 h 528 W/m 10.5 C 29.0 C 14.0 km/h (3 Bft)
05.07.2008 18:00 28.2 C 34 % 1011.9 hPa 0.0 l/m 8.2 km/h (2 Bft) W 0.92 h 335 W/m 10.8 C 28.2 C 13.2 km/h (3 Bft)
05.07.2008 19:00 27.3 C 38 % 1011.5 hPa 0.0 l/m 4.3 km/h (1 Bft) W 0.68 h 190 W/m 11.7 C 27.3 C 6.9 km/h (2 Bft)
05.07.2008 20:00 25.9 C 42 % 1011.7 hPa 0.0 l/m 4.2 km/h (1 Bft) W-NW 0.65 h 86 W/m 12.0 C 25.9 C 7.3 km/h (2 Bft)
05.07.2008 21:00 23.7 C 50 % 1012.0 hPa 0.0 l/m 0.8 km/h (0 Bft) O 0.00 h 7 W/m 12.8 C 23.7 C 1.7 km/h (1 Bft)
05.07.2008 22:00 22.2 C 56 % 1012.3 hPa 0.0 l/m 0.4 km/h (0 Bft) W 0.00 h 0 W/m 12.9 C 22.2 C 1.3 km/h (1 Bft)
05.07.2008 23:00 20.8 C 63 % 1012.5 hPa 0.0 l/m 1.0 km/h (0 Bft) O 0.00 h 0 W/m 13.4 C 20.8 C 2.2 km/h (1 Bft)
06.07.2008 00:00 20.2 C 66 % 1012.3 hPa 0.0 l/m 0.6 km/h (0 Bft) O-NO 0.00 h 0 W/m 13.6 C 20.2 C 1.4 km/h (1 Bft)
06.07.2008 01:00 18.8 C 72 % 1012.2 hPa 0.0 l/m 1.8 km/h (1 Bft) O-SO 0.00 h 0 W/m 13.6 C 18.8 C 2.9 km/h (1 Bft)
06.07.2008 02:00 17.7 C 77 % 1011.9 hPa 0.0 l/m 1.5 km/h (1 Bft) O-SO 0.00 h 0 W/m 13.6 C 17.7 C 2.8 km/h (1 Bft)
06.07.2008 03:00 16.9 C 81 % 1011.7 hPa 0.0 l/m 1.9 km/h (1 Bft) O-SO 0.00 h 0 W/m 13.5 C 16.9 C 3.0 km/h (1 Bft)
06.07.2008 04:00 16.6 C 82 % 1011.7 hPa 0.0 l/m 0.9 km/h (0 Bft) O-SO 0.00 h 0 W/m 13.5 C 16.6 C 1.6 km/h (1 Bft)
06.07.2008 05:00 16.2 C 86 % 1011.3 hPa 0.0 l/m 0.2 km/h (0 Bft) O-SO 0.13 h 12 W/m 13.8 C 16.2 C 0.5 km/h (0 Bft)
06.07.2008 06:00 16.0 C 87 % 1010.8 hPa 0.0 l/m 1.7 km/h (1 Bft) O-SO 0.08 h 41 W/m 13.8 C 16.0 C 2.6 km/h (1 Bft)
06.07.2008 07:00 17.8 C 82 % 1010.6 hPa 0.0 l/m 0.1 km/h (0 Bft) O-SO 0.55 h 145 W/m 14.6 C 17.8 C 0.9 km/h (0 Bft)
06.07.2008 08:00 19.5 C 75 % 1010.3 hPa 0.0 l/m 1.4 km/h (1 Bft) NW 0.27 h 176 W/m 14.9 C 19.5 C 3.0 km/h (1 Bft)
06.07.2008 09:00 21.4 C 68 % 1009.4 hPa 0.0 l/m 2.1 km/h (1 Bft) W-NW 0.57 h 352 W/m 15.2 C 21.4 C 4.5 km/h (1 Bft)
06.07.2008 10:00 23.5 C 62 % 1008.8 hPa 0.0 l/m 5.7 km/h (1 Bft) W 0.78 h 545 W/m 15.9 C 23.5 C 9.4 km/h (2 Bft)
06.07.2008 11:00 21.2 C 67 % 1009.3 hPa 0.4 l/m 18.5 km/h (3 Bft) W 0.00 h 144 W/m 14.7 C 21.2 C 28.8 km/h (5 Bft)
06.07.2008 12:00 17.5 C 94 % 1010.6 hPa 2.0 l/m 4.2 km/h (1 Bft) W 0.00 h 193 W/m 16.5 C 17.5 C 7.7 km/h (2 Bft)
06.07.2008 13:00 16.8 C 92 % 1011.0 hPa 0.2 l/m 4.1 km/h (1 Bft) W-NW 0.00 h 172 W/m 15.6 C 16.8 C 7.9 km/h (2 Bft)
06.07.2008 14:00 17.5 C 90 % 1011.3 hPa 0.0 l/m 1.8 km/h (1 Bft) W-SW 0.03 h 199 W/m 15.8 C 17.5 C 4.4 km/h (1 Bft)
06.07.2008 15:00 18.0 C 89 % 1010.6 hPa 0.2 l/m 1.6 km/h (1 Bft) SO 0.00 h 203 W/m 16.1 C 18.0 C 3.5 km/h (1 Bft)
06.07.2008 16:00 19.9 C 84 % 1009.9 hPa 0.0 l/m 2.4 km/h (1 Bft) SO 0.67 h 501 W/m 17.2 C 19.9 C 4.8 km/h (1 Bft)
06.07.2008 17:00 21.9 C 74 % 1008.2 hPa 0.0 l/m 3.5 km/h (1 Bft) SO 0.88 h 507 W/m 17.1 C 21.9 C 7.2 km/h (2 Bft)
06.07.2008 18:00 22.0 C 72 % 1007.4 hPa 0.0 l/m 3.2 km/h (1 Bft) W-SW 0.18 h 166 W/m 16.7 C 22.0 C 7.4 km/h (2 Bft)
06.07.2008 19:00 19.6 C 83 % 1008.1 hPa 0.6 l/m 11.9 km/h (2 Bft) W 0.00 h 25 W/m 16.6 C 19.6 C 19.6 km/h (3 Bft)
06.07.2008 20:00 16.7 C 95 % 1008.9 hPa 1.4 l/m 7.1 km/h (2 Bft) W 0.00 h 8 W/m 15.9 C 16.7 C 11.4 km/h (2 Bft)
06.07.2008 21:00 16.3 C 98 % 1009.4 hPa 0.2 l/m 3.0 km/h (1 Bft) W 0.08 h 10 W/m 15.9 C 16.3 C 5.6 km/h (1 Bft)
06.07.2008 22:00 15.9 C 98 % 1009.9 hPa 0.2 l/m 4.5 km/h (1 Bft) W 0.00 h 0 W/m 15.7 C 15.9 C 7.8 km/h (2 Bft)
06.07.2008 23:00 15.5 C 99 % 1010.5 hPa 0.4 l/m 6.2 km/h (2 Bft) W 0.00 h 0 W/m 15.3 C 15.5 C 9.9 km/h (2 Bft)
Min-Datum _ 05.07.08 05.07.08 02.07.08 - 30.06.08 - - - 05.07.08 05.07.08 30.06.08
_ Min-Zeit 05:50 13:24 19:15 - 00:39 - - - 13:24 05:50 02:18
Minimum _ 10.6 C 20 % 1006.5 hPa - 0.0 km/h (0 Bft) - - - 2.0 C 10.6 C 0.0 km/h (0 Bft)
Max-Datum _ 02.07.08 06.07.08 30.06.08 06.07.08 06.07.08 - 30.06.08 05.07.08 03.07.08 02.07.08 06.07.08
_ Max-Zeit 16:18 22:40 08:30 12:00 11:49 - 06:02 11:54 16:50 17:01 11:48
Maximum _ 33.6 C 99 % 1019.0 hPa 2.0 l/m 31.3 km/h
W (5 Bft)
- 0.02 h 1127 W/m 18.9 C 33.7 C 46.9 km/h
W (6 Bft)
Durchschnitt _ 21.4 C 67 % 1013.5 hPa #8.4 l/m 3.3 km/h (1 Bft) W #59:25 h 348 W/m 14.1 C 21.4 C 5.9 km/h (2 Bft)
© Kaiko 2008